sensor_id;sensor_type;location;lat;lon;timestamp;pressure;altitude;pressure_sealevel;temperature;humidity
76424;BME280;65257;52.104;4.268;2023-03-13T00:03:46;100006.59;;;9.47;100.00
76424;BME280;65257;52.104;4.268;2023-03-13T00:06:13;99992.19;;;9.51;100.00
76424;BME280;65257;52.104;4.268;2023-03-13T00:08:42;99999.03;;;9.52;100.00
76424;BME280;65257;52.104;4.268;2023-03-13T00:11:10;99993.94;;;9.52;100.00
76424;BME280;65257;52.104;4.268;2023-03-13T00:13:36;99978.69;;;9.55;100.00
76424;BME280;65257;52.104;4.268;2023-03-13T00:16:08;99966.81;;;9.57;100.00
76424;BME280;65257;52.104;4.268;2023-03-13T00:18:34;99956.53;;;9.54;100.00
76424;BME280;65257;52.104;4.268;2023-03-13T00:21:07;99971.94;;;9.57;100.00
76424;BME280;65257;52.104;4.268;2023-03-13T00:23:42;99960.84;;;9.56;100.00
76424;BME280;65257;52.104;4.268;2023-03-13T00:26:13;99945.59;;;9.59;100.00
76424;BME280;65257;52.104;4.268;2023-03-13T00:28:40;99953.25;;;9.58;100.00
76424;BME280;65257;52.104;4.268;2023-03-13T00:31:07;99925.19;;;9.59;100.00
76424;BME280;65257;52.104;4.268;2023-03-13T00:33:39;99924.38;;;9.62;100.00
76424;BME280;65257;52.104;4.268;2023-03-13T00:36:06;99915.97;;;9.66;100.00
76424;BME280;65257;52.104;4.268;2023-03-13T00:38:33;99914.38;;;9.71;100.00
76424;BME280;65257;52.104;4.268;2023-03-13T00:41:10;99907.69;;;9.76;100.00
76424;BME280;65257;52.104;4.268;2023-03-13T00:43:37;99911.22;;;9.81;100.00
76424;BME280;65257;52.104;4.268;2023-03-13T00:46:06;99899.19;;;9.77;100.00
76424;BME280;65257;52.104;4.268;2023-03-13T00:48:32;99913.00;;;9.85;100.00
76424;BME280;65257;52.104;4.268;2023-03-13T00:50:59;99876.44;;;9.87;100.00
76424;BME280;65257;52.104;4.268;2023-03-13T00:53:24;99879.88;;;9.88;100.00
76424;BME280;65257;52.104;4.268;2023-03-13T00:56:09;99864.56;;;9.89;100.00
76424;BME280;65257;52.104;4.268;2023-03-13T00:58:42;99863.78;;;9.92;100.00
76424;BME280;65257;52.104;4.268;2023-03-13T01:01:16;99855.34;;;9.96;100.00
76424;BME280;65257;52.104;4.268;2023-03-13T01:03:44;99861.31;;;9.96;100.00
76424;BME280;65257;52.104;4.268;2023-03-13T01:06:13;99848.66;;;10.01;100.00
76424;BME280;65257;52.104;4.268;2023-03-13T01:08:39;99846.97;;;10.03;100.00
76424;BME280;65257;52.104;4.268;2023-03-13T01:11:26;99820.69;;;10.08;100.00
76424;BME280;65257;52.104;4.268;2023-03-13T01:13:56;99874.50;;;10.13;100.00
76424;BME280;65257;52.104;4.268;2023-03-13T01:16:24;99822.50;;;10.13;100.00
76424;BME280;65257;52.104;4.268;2023-03-13T01:18:53;99820.00;;;10.14;100.00
76424;BME280;65257;52.104;4.268;2023-03-13T01:21:26;99835.38;;;10.17;100.00
76424;BME280;65257;52.104;4.268;2023-03-13T01:23:56;99833.84;;;10.25;100.00
76424;BME280;65257;52.104;4.268;2023-03-13T01:26:25;99809.97;;;10.25;100.00
76424;BME280;65257;52.104;4.268;2023-03-13T01:29:00;99803.22;;;10.28;100.00
76424;BME280;65257;52.104;4.268;2023-03-13T01:31:28;99805.78;;;10.30;100.00
76424;BME280;65257;52.104;4.268;2023-03-13T01:33:58;99815.25;;;10.32;100.00
76424;BME280;65257;52.104;4.268;2023-03-13T01:36:25;99777.78;;;10.34;100.00
76424;BME280;65257;52.104;4.268;2023-03-13T01:38:56;99782.91;;;10.34;100.00
76424;BME280;65257;52.104;4.268;2023-03-13T01:41:23;99772.72;;;10.37;100.00
76424;BME280;65257;52.104;4.268;2023-03-13T01:43:49;99772.66;;;10.34;100.00
76424;BME280;65257;52.104;4.268;2023-03-13T01:46:16;99755.53;;;10.30;100.00
76424;BME280;65257;52.104;4.268;2023-03-13T01:49:04;99765.94;;;10.39;100.00
76424;BME280;65257;52.104;4.268;2023-03-13T01:51:41;99774.50;;;10.41;100.00
76424;BME280;65257;52.104;4.268;2023-03-13T01:54:38;99760.97;;;10.48;100.00
76424;BME280;65257;52.104;4.268;2023-03-13T01:57:12;99747.47;;;10.55;100.00
76424;BME280;65257;52.104;4.268;2023-03-13T02:00:02;99744.13;;;10.59;100.00
76424;BME280;65257;52.104;4.268;2023-03-13T02:02:36;99747.63;;;10.64;100.00
76424;BME280;65257;52.104;4.268;2023-03-13T02:05:03;99736.59;;;10.67;100.00
76424;BME280;65257;52.104;4.268;2023-03-13T02:07:37;99754.72;;;10.81;100.00
76424;BME280;65257;52.104;4.268;2023-03-13T02:10:06;99731.72;;;10.82;100.00
76424;BME280;65257;52.104;4.268;2023-03-13T02:12:35;99741.25;;;10.91;100.00
76424;BME280;65257;52.104;4.268;2023-03-13T02:15:27;99717.41;;;10.95;100.00
76424;BME280;65257;52.104;4.268;2023-03-13T02:17:54;99738.75;;;10.97;100.00
76424;BME280;65257;52.104;4.268;2023-03-13T02:20:20;99717.56;;;11.04;100.00
76424;BME280;65257;52.104;4.268;2023-03-13T02:22:55;99720.19;;;11.08;100.00
76424;BME280;65257;52.104;4.268;2023-03-13T02:27:51;99726.88;;;11.00;100.00
76424;BME280;65257;52.104;4.268;2023-03-13T02:30:18;99717.59;;;11.07;100.00
76424;BME280;65257;52.104;4.268;2023-03-13T02:32:44;99712.50;;;11.10;100.00
76424;BME280;65257;52.104;4.268;2023-03-13T02:35:13;99730.53;;;11.16;100.00
76424;BME280;65257;52.104;4.268;2023-03-13T02:37:45;99710.88;;;11.15;100.00
76424;BME280;65257;52.104;4.268;2023-03-13T02:40:14;99699.81;;;11.17;100.00
76424;BME280;65257;52.104;4.268;2023-03-13T02:42:46;99708.44;;;11.22;100.00
76424;BME280;65257;52.104;4.268;2023-03-13T02:45:14;99707.66;;;11.28;100.00
76424;BME280;65257;52.104;4.268;2023-03-13T02:47:40;99693.97;;;11.26;100.00
76424;BME280;65257;52.104;4.268;2023-03-13T02:50:09;99687.19;;;11.28;100.00
76424;BME280;65257;52.104;4.268;2023-03-13T02:53:02;99688.09;;;11.33;100.00
76424;BME280;65257;52.104;4.268;2023-03-13T02:55:54;99675.34;;;11.36;100.00
76424;BME280;65257;52.104;4.268;2023-03-13T02:58:22;99681.38;;;11.41;100.00
76424;BME280;65257;52.104;4.268;2023-03-13T03:00:51;99678.88;;;11.46;100.00
76424;BME280;65257;52.104;4.268;2023-03-13T03:03:17;99678.91;;;11.47;100.00
76424;BME280;65257;52.104;4.268;2023-03-13T03:05:46;99670.34;;;11.48;100.00
76424;BME280;65257;52.104;4.268;2023-03-13T03:08:11;99687.56;;;11.58;100.00
76424;BME280;65257;52.104;4.268;2023-03-13T03:10:37;99685.91;;;11.60;100.00
76424;BME280;65257;52.104;4.268;2023-03-13T03:13:02;99667.06;;;11.57;100.00
76424;BME280;65257;52.104;4.268;2023-03-13T03:15:28;99679.00;;;11.56;100.00
76424;BME280;65257;52.104;4.268;2023-03-13T03:17:54;99667.94;;;11.57;100.00
76424;BME280;65257;52.104;4.268;2023-03-13T03:20:22;99667.16;;;11.64;100.00
76424;BME280;65257;52.104;4.268;2023-03-13T03:22:48;99669.78;;;11.69;100.00
76424;BME280;65257;52.104;4.268;2023-03-13T03:25:16;99680.13;;;11.75;100.00
76424;BME280;65257;52.104;4.268;2023-03-13T03:27:42;99655.38;;;11.75;100.00
76424;BME280;65257;52.104;4.268;2023-03-13T03:30:11;99633.09;;;11.71;100.00
76424;BME280;65257;52.104;4.268;2023-03-13T03:32:36;99653.50;;;11.65;100.00
76424;BME280;65257;52.104;4.268;2023-03-13T03:35:01;99655.22;;;11.66;100.00
76424;BME280;65257;52.104;4.268;2023-03-13T03:37:27;99648.38;;;11.65;100.00
76424;BME280;65257;52.104;4.268;2023-03-13T03:39:55;99646.66;;;11.64;100.00
76424;BME280;65257;52.104;4.268;2023-03-13T03:42:27;99644.97;;;11.66;100.00
76424;BME280;65257;52.104;4.268;2023-03-13T03:44:52;99654.34;;;11.64;100.00
76424;BME280;65257;52.104;4.268;2023-03-13T03:47:17;99646.59;;;11.61;100.00
76424;BME280;65257;52.104;4.268;2023-03-13T03:49:43;99638.09;;;11.62;100.00
76424;BME280;65257;52.104;4.268;2023-03-13T03:52:08;99633.84;;;11.64;100.00
76424;BME280;65257;52.104;4.268;2023-03-13T03:54:34;99653.59;;;11.68;100.00
76424;BME280;65257;52.104;4.268;2023-03-13T03:57:00;99650.09;;;11.66;100.00
76424;BME280;65257;52.104;4.268;2023-03-13T03:59:25;99645.00;;;11.68;100.00
76424;BME280;65257;52.104;4.268;2023-03-13T04:01:51;99634.78;;;11.69;100.00
76424;BME280;65257;52.104;4.268;2023-03-13T04:04:16;99629.59;;;11.66;100.00
76424;BME280;65257;52.104;4.268;2023-03-13T04:06:45;99643.25;;;11.67;100.00
76424;BME280;65257;52.104;4.268;2023-03-13T04:09:14;99645.91;;;11.68;100.00
76424;BME280;65257;52.104;4.268;2023-03-13T04:11:39;99625.41;;;11.68;100.00
76424;BME280;65257;52.104;4.268;2023-03-13T04:14:05;99616.84;;;11.69;100.00
76424;BME280;65257;52.104;4.268;2023-03-13T04:16:30;99623.72;;;11.72;100.00
76424;BME280;65257;52.104;4.268;2023-03-13T04:18:59;99610.91;;;11.70;100.00
76424;BME280;65257;52.104;4.268;2023-03-13T04:21:24;99616.88;;;11.72;100.00
76424;BME280;65257;52.104;4.268;2023-03-13T04:23:49;99592.16;;;11.77;100.00
76424;BME280;65257;52.104;4.268;2023-03-13T04:26:15;99612.72;;;11.82;100.00
76424;BME280;65257;52.104;4.268;2023-03-13T04:28:41;99588.81;;;11.84;100.00
76424;BME280;65257;52.104;4.268;2023-03-13T04:31:06;99586.28;;;11.86;100.00
76424;BME280;65257;52.104;4.268;2023-03-13T04:33:33;99587.13;;;11.86;100.00
76424;BME280;65257;52.104;4.268;2023-03-13T04:36:01;99583.75;;;11.90;100.00
76424;BME280;65257;52.104;4.268;2023-03-13T04:38:28;99607.69;;;11.92;100.00
76424;BME280;65257;52.104;4.268;2023-03-13T04:40:53;99577.78;;;11.94;100.00
76424;BME280;65257;52.104;4.268;2023-03-13T04:43:18;99590.66;;;11.98;100.00
76424;BME280;65257;52.104;4.268;2023-03-13T04:45:44;99571.00;;;12.00;100.00
76424;BME280;65257;52.104;4.268;2023-03-13T04:48:10;99574.44;;;12.00;100.00
76424;BME280;65257;52.104;4.268;2023-03-13T04:50:38;99559.91;;;12.01;100.00
76424;BME280;65257;52.104;4.268;2023-03-13T04:53:05;99561.66;;;12.02;100.00
76424;BME280;65257;52.104;4.268;2023-03-13T04:55:30;99556.50;;;11.99;100.00
76424;BME280;65257;52.104;4.268;2023-03-13T04:57:56;99555.63;;;12.00;100.00
76424;BME280;65257;52.104;4.268;2023-03-13T05:00:21;99558.22;;;12.03;100.00
76424;BME280;65257;52.104;4.268;2023-03-13T05:02:46;99553.13;;;12.06;100.00
76424;BME280;65257;52.104;4.268;2023-03-13T05:05:12;99537.78;;;12.10;100.00
76424;BME280;65257;52.104;4.268;2023-03-13T05:07:38;99558.31;;;12.12;100.00
76424;BME280;65257;52.104;4.268;2023-03-13T05:10:03;99543.78;;;12.15;100.00
76424;BME280;65257;52.104;4.268;2023-03-13T05:12:35;99547.22;;;12.16;100.00
76424;BME280;65257;52.104;4.268;2023-03-13T05:15:00;99533.59;;;12.21;100.00
76424;BME280;65257;52.104;4.268;2023-03-13T05:17:26;99536.19;;;12.26;100.00
76424;BME280;65257;52.104;4.268;2023-03-13T05:19:51;99543.06;;;12.30;100.00
76424;BME280;65257;52.104;4.268;2023-03-13T05:22:17;99529.44;;;12.37;100.00
76424;BME280;65257;52.104;4.268;2023-03-13T05:24:45;99531.97;;;12.35;100.00
76424;BME280;65257;52.104;4.268;2023-03-13T05:27:10;99543.09;;;12.36;100.00
76424;BME280;65257;52.104;4.268;2023-03-13T05:29:42;99527.72;;;12.39;100.00
76424;BME280;65257;52.104;4.268;2023-03-13T05:32:07;99519.19;;;12.43;100.00
76424;BME280;65257;52.104;4.268;2023-03-13T05:34:32;99508.91;;;12.43;100.00
76424;BME280;65257;52.104;4.268;2023-03-13T05:36:58;99502.97;;;12.48;100.00
76424;BME280;65257;52.104;4.268;2023-03-13T05:39:23;99513.25;;;12.48;100.00
76424;BME280;65257;52.104;4.268;2023-03-13T05:41:51;99508.97;;;12.49;100.00
76424;BME280;65257;52.104;4.268;2023-03-13T05:44:17;99519.19;;;12.43;100.00
76424;BME280;65257;52.104;4.268;2023-03-13T05:46:42;99520.91;;;12.44;100.00
76424;BME280;65257;52.104;4.268;2023-03-13T05:49:08;99516.66;;;12.47;100.00
76424;BME280;65257;52.104;4.268;2023-03-13T05:51:33;99524.34;;;12.46;100.00
76424;BME280;65257;52.104;4.268;2023-03-13T05:53:58;99557.66;;;12.43;100.00
76424;BME280;65257;52.104;4.268;2023-03-13T05:56:24;99539.59;;;12.22;100.00
76424;BME280;65257;52.104;4.268;2023-03-13T05:58:49;99521.56;;;12.13;100.00
76424;BME280;65257;52.104;4.268;2023-03-13T06:01:15;99537.69;;;12.00;100.00
76424;BME280;65257;52.104;4.268;2023-03-13T06:03:40;99539.28;;;11.85;100.00
76424;BME280;65257;52.104;4.268;2023-03-13T06:06:08;99544.31;;;11.76;100.00
76424;BME280;65257;52.104;4.268;2023-03-13T06:08:34;99559.50;;;11.61;100.00
76424;BME280;65257;52.104;4.268;2023-03-13T06:11:06;99537.22;;;11.51;100.00
76424;BME280;65257;52.104;4.268;2023-03-13T06:13:31;99543.09;;;11.41;100.00
76424;BME280;65257;52.104;4.268;2023-03-13T06:15:57;99542.22;;;11.39;100.00
76424;BME280;65257;52.104;4.268;2023-03-13T06:18:24;99547.28;;;11.35;100.00
76424;BME280;65257;52.104;4.268;2023-03-13T06:20:57;99535.31;;;11.32;100.00
76424;BME280;65257;52.104;4.268;2023-03-13T06:23:26;99554.09;;;11.34;100.00
76424;BME280;65257;52.104;4.268;2023-03-13T06:25:52;99522.56;;;11.37;100.00
76424;BME280;65257;52.104;4.268;2023-03-13T06:28:17;99519.16;;;11.39;100.00
76424;BME280;65257;52.104;4.268;2023-03-13T06:30:43;99540.56;;;11.44;100.00
76424;BME280;65257;52.104;4.268;2023-03-13T06:33:09;99533.75;;;11.46;100.00
76424;BME280;65257;52.104;4.268;2023-03-13T06:35:34;99522.63;;;11.46;100.00
76424;BME280;65257;52.104;4.268;2023-03-13T06:38:01;99535.47;;;11.47;100.00
76424;BME280;65257;52.104;4.268;2023-03-13T06:40:26;99528.63;;;11.45;100.00
76424;BME280;65257;52.104;4.268;2023-03-13T06:42:51;99518.34;;;11.43;100.00
76424;BME280;65257;52.104;4.268;2023-03-13T06:45:18;99534.66;;;11.51;100.00
76424;BME280;65257;52.104;4.268;2023-03-13T06:47:43;99548.31;;;11.52;100.00
76424;BME280;65257;52.104;4.268;2023-03-13T06:50:11;99551.78;;;11.57;100.00
76424;BME280;65257;52.104;4.268;2023-03-13T06:52:43;99533.91;;;11.64;100.00
76424;BME280;65257;52.104;4.268;2023-03-13T06:55:09;99525.41;;;11.65;100.00
76424;BME280;65257;52.104;4.268;2023-03-13T06:57:34;99527.13;;;11.68;100.00
76424;BME280;65257;52.104;4.268;2023-03-13T06:59:59;99540.84;;;11.68;100.00
76424;BME280;65257;52.104;4.268;2023-03-13T07:02:25;99540.75;;;11.62;100.00
76424;BME280;65257;52.104;4.268;2023-03-13T07:04:50;99511.69;;;11.60;100.00
76424;BME280;65257;52.104;4.268;2023-03-13T07:07:16;99534.75;;;11.60;100.00
76424;BME280;65257;52.104;4.268;2023-03-13T07:09:41;99527.03;;;11.57;100.00
76424;BME280;65257;52.104;4.268;2023-03-13T07:12:13;99539.84;;;11.59;100.00
76424;BME280;65257;52.104;4.268;2023-03-13T07:14:45;99527.91;;;11.61;100.00
76424;BME280;65257;52.104;4.268;2023-03-13T07:17:14;99550.97;;;11.59;100.00
76424;BME280;65257;52.104;4.268;2023-03-13T07:19:39;99550.97;;;11.59;100.00
76424;BME280;65257;52.104;4.268;2023-03-13T07:22:04;99565.38;;;11.51;100.00
76424;BME280;65257;52.104;4.268;2023-03-13T07:24:30;99537.25;;;11.54;100.00
76424;BME280;65257;52.104;4.268;2023-03-13T07:26:56;99543.13;;;11.46;100.00
76424;BME280;65257;52.104;4.268;2023-03-13T07:29:22;99549.19;;;11.52;100.00
76424;BME280;65257;52.104;4.268;2023-03-13T07:31:48;99544.09;;;11.58;100.00
76424;BME280;65257;52.104;4.268;2023-03-13T07:34:13;99533.91;;;11.63;100.00
76424;BME280;65257;52.104;4.268;2023-03-13T07:36:39;99539.19;;;11.73;100.00
76424;BME280;65257;52.104;4.268;2023-03-13T07:39:06;99513.56;;;11.76;100.00
76424;BME280;65257;52.104;4.268;2023-03-13T07:41:32;99503.44;;;11.91;100.00
76424;BME280;65257;52.104;4.268;2023-03-13T07:44:01;99523.25;;;12.09;100.00
76424;BME280;65257;52.104;4.268;2023-03-13T07:46:26;99516.41;;;12.10;100.00
76424;BME280;65257;52.104;4.268;2023-03-13T07:48:52;99513.00;;;12.12;100.00
76424;BME280;65257;52.104;4.268;2023-03-13T07:51:21;99505.31;;;12.11;100.00
76424;BME280;65257;52.104;4.268;2023-03-13T07:53:51;99534.41;;;12.16;100.00
76424;BME280;65257;52.104;4.268;2023-03-13T07:56:19;99512.16;;;12.15;100.00
76424;BME280;65257;52.104;4.268;2023-03-13T07:58:45;99483.97;;;12.16;100.00
76424;BME280;65257;52.104;4.268;2023-03-13T08:01:22;99510.47;;;12.20;100.00
76424;BME280;65257;52.104;4.268;2023-03-13T08:03:48;99484.03;;;12.25;100.00
76424;BME280;65257;52.104;4.268;2023-03-13T08:06:19;99479.84;;;12.35;100.00
76424;BME280;65257;52.104;4.268;2023-03-13T08:08:46;99495.22;;;12.41;100.00
76424;BME280;65257;52.104;4.268;2023-03-13T08:11:13;99493.56;;;12.46;100.00
76424;BME280;65257;52.104;4.268;2023-03-13T08:13:40;99498.75;;;12.55;100.00
76424;BME280;65257;52.104;4.268;2023-03-13T08:16:18;99500.44;;;12.56;100.00
76424;BME280;65257;52.104;4.268;2023-03-13T08:18:49;99497.03;;;12.54;100.00
76424;BME280;65257;52.104;4.268;2023-03-13T08:21:24;99489.38;;;12.65;100.00
76424;BME280;65257;52.104;4.268;2023-03-13T08:23:55;99497.13;;;12.72;100.00
76424;BME280;65257;52.104;4.268;2023-03-13T08:26:25;99450.97;;;12.90;100.00
76424;BME280;65257;52.104;4.268;2023-03-13T08:28:56;99484.53;;;13.57;100.00
76424;BME280;65257;52.104;4.268;2023-03-13T08:31:23;99492.28;;;13.86;100.00
76424;BME280;65257;52.104;4.268;2023-03-13T08:33:50;99509.34;;;13.31;100.00
76424;BME280;65257;52.104;4.268;2023-03-13T08:36:21;99497.38;;;13.45;100.00
76424;BME280;65257;52.104;4.268;2023-03-13T08:38:52;99480.25;;;14.10;100.00
76424;BME280;65257;52.104;4.268;2023-03-13T08:41:19;99458.81;;;14.34;100.00
76424;BME280;65257;52.104;4.268;2023-03-13T08:43:45;99464.66;;;14.83;100.00
76424;BME280;65257;52.104;4.268;2023-03-13T08:46:14;99461.13;;;15.02;100.00
76424;BME280;65257;52.104;4.268;2023-03-13T08:48:40;99484.38;;;14.88;100.00
76424;BME280;65257;52.104;4.268;2023-03-13T08:51:09;99473.22;;;14.85;100.00
76424;BME280;65257;52.104;4.268;2023-03-13T08:53:36;99469.06;;;14.48;100.00
76424;BME280;65257;52.104;4.268;2023-03-13T08:56:05;99459.66;;;14.10;100.00
76424;BME280;65257;52.104;4.268;2023-03-13T08:58:32;99492.28;;;14.32;100.00
76424;BME280;65257;52.104;4.268;2023-03-13T09:01:02;99447.69;;;13.93;100.00
76424;BME280;65257;52.104;4.268;2023-03-13T09:03:28;99463.09;;;14.24;100.00
76424;BME280;65257;52.104;4.268;2023-03-13T09:05:58;99449.41;;;13.95;100.00
76424;BME280;65257;52.104;4.268;2023-03-13T09:08:28;99458.75;;;14.46;100.00
76424;BME280;65257;52.104;4.268;2023-03-13T09:11:01;99444.28;;;13.77;100.00
76424;BME280;65257;52.104;4.268;2023-03-13T09:13:29;99439.91;;;14.38;100.00
76424;BME280;65257;52.104;4.268;2023-03-13T09:16:04;99401.44;;;13.46;100.00
76424;BME280;65257;52.104;4.268;2023-03-13T09:18:31;99435.72;;;13.30;100.00
76424;BME280;65257;52.104;4.268;2023-03-13T09:21:00;99426.22;;;13.01;100.00
76424;BME280;65257;52.104;4.268;2023-03-13T09:23:26;99423.72;;;13.41;100.00
76424;BME280;65257;52.104;4.268;2023-03-13T09:25:53;99412.53;;;13.95;100.00
76424;BME280;65257;52.104;4.268;2023-03-13T09:28:24;99400.25;;;14.84;100.00
76424;BME280;65257;52.104;4.268;2023-03-13T09:30:53;99413.94;;;14.89;100.00
76424;BME280;65257;52.104;4.268;2023-03-13T09:33:20;99416.69;;;14.55;100.00
76424;BME280;65257;52.104;4.268;2023-03-13T09:35:54;99407.78;;;15.19;100.00
76424;BME280;65257;52.104;4.268;2023-03-13T09:38:28;99400.38;;;14.63;100.00
76424;BME280;65257;52.104;4.268;2023-03-13T09:40:54;99404.81;;;14.17;100.00
76424;BME280;65257;52.104;4.268;2023-03-13T09:46:10;99391.00;;;14.30;100.00
76424;BME280;65257;52.104;4.268;2023-03-13T09:48:50;99397.16;;;13.89;100.00
76424;BME280;65257;52.104;4.268;2023-03-13T09:51:36;99392.91;;;13.63;100.00
76424;BME280;65257;52.104;4.268;2023-03-13T09:54:37;99403.19;;;13.71;100.00
76424;BME280;65257;52.104;4.268;2023-03-13T10:00:13;99387.69;;;14.01;100.00
76424;BME280;65257;52.104;4.268;2023-03-13T10:02:59;99380.72;;;14.44;100.00
76424;BME280;65257;52.104;4.268;2023-03-13T10:05:28;99397.69;;;14.83;100.00
76424;BME280;65257;52.104;4.268;2023-03-13T10:08:00;99378.22;;;15.65;100.00
76424;BME280;65257;52.104;4.268;2023-03-13T10:14:12;99366.81;;;15.89;100.00
76424;BME280;65257;52.104;4.268;2023-03-13T10:16:47;99387.03;;;15.37;100.00
76424;BME280;65257;52.104;4.268;2023-03-13T10:19:18;99367.56;;;14.92;100.00
76424;BME280;65257;52.104;4.268;2023-03-13T10:21:49;99381.22;;;15.08;100.00
76424;BME280;65257;52.104;4.268;2023-03-13T10:24:31;99371.66;;;15.25;100.00
76424;BME280;65257;52.104;4.268;2023-03-13T10:27:00;99390.19;;;14.34;100.00
76424;BME280;65257;52.104;4.268;2023-03-13T10:29:28;99395.31;;;14.36;100.00
76424;BME280;65257;52.104;4.268;2023-03-13T10:32:03;99380.47;;;14.94;100.00
76424;BME280;65257;52.104;4.268;2023-03-13T10:34:57;99396.44;;;15.43;100.00
76424;BME280;65257;52.104;4.268;2023-03-13T10:37:29;99359.16;;;14.65;100.00
76424;BME280;65257;52.104;4.268;2023-03-13T10:42:42;99388.44;;;14.41;100.00
76424;BME280;65257;52.104;4.268;2023-03-13T10:45:22;99389.88;;;14.96;100.00
76424;BME280;65257;52.104;4.268;2023-03-13T10:47:55;99379.13;;;15.60;100.00
76424;BME280;65257;52.104;4.268;2023-03-13T10:50:25;99393.63;;;15.72;100.00
76424;BME280;65257;52.104;4.268;2023-03-13T10:52:52;99388.47;;;15.73;100.00
76424;BME280;65257;52.104;4.268;2023-03-13T10:55:25;99396.22;;;15.70;100.00
76424;BME280;65257;52.104;4.268;2023-03-13T10:58:03;99361.41;;;16.12;100.00
76424;BME280;65257;52.104;4.268;2023-03-13T11:00:38;99377.63;;;16.21;100.00
76424;BME280;65257;52.104;4.268;2023-03-13T11:03:22;99394.97;;;16.12;100.00
76424;BME280;65257;52.104;4.268;2023-03-13T11:05:59;99371.22;;;15.78;100.00
76424;BME280;65257;52.104;4.268;2023-03-13T11:08:36;99379.50;;;15.05;100.00
76424;BME280;65257;52.104;4.268;2023-03-13T11:11:04;99395.38;;;15.70;100.00
76424;BME280;65257;52.104;4.268;2023-03-13T11:13:41;99407.59;;;15.46;100.00
76424;BME280;65257;52.104;4.268;2023-03-13T11:16:28;99389.28;;;14.48;100.00
76424;BME280;65257;52.104;4.268;2023-03-13T11:27:09;99413.38;;;14.13;100.00
76424;BME280;65257;52.104;4.268;2023-03-13T11:33:00;99398.47;;;14.98;100.00
76424;BME280;65257;52.104;4.268;2023-03-13T11:35:36;99384.06;;;14.60;100.00
76424;BME280;65257;52.104;4.268;2023-03-13T11:38:12;99390.28;;;13.94;100.00
76424;BME280;65257;52.104;4.268;2023-03-13T11:41:04;99389.38;;;14.11;100.00
76424;BME280;65257;52.104;4.268;2023-03-13T11:52:15;99378.31;;;13.68;100.00
76424;BME280;65257;52.104;4.268;2023-03-13T11:55:00;99387.75;;;13.48;100.00
76424;BME280;65257;52.104;4.268;2023-03-13T11:57:28;99386.03;;;13.46;100.00
76424;BME280;65257;52.104;4.268;2023-03-13T12:02:52;99382.59;;;13.07;100.00
76424;BME280;65257;52.104;4.268;2023-03-13T12:05:20;99374.03;;;13.81;100.00
76424;BME280;65257;52.104;4.268;2023-03-13T12:08:01;99375.72;;;13.80;100.00
76424;BME280;65257;52.104;4.268;2023-03-13T12:10:36;99372.22;;;14.19;100.00
76424;BME280;65257;52.104;4.268;2023-03-13T12:19:14;99338.09;;;13.42;100.00
76424;BME280;65257;52.104;4.268;2023-03-13T12:21:49;99353.31;;;14.29;100.00
76424;BME280;65257;52.104;4.268;2023-03-13T12:24:40;99361.03;;;14.34;100.00
76424;BME280;65257;52.104;4.268;2023-03-13T12:27:17;99346.91;;;15.00;100.00
76424;BME280;65257;52.104;4.268;2023-03-13T12:32:47;99349.19;;;15.45;100.00
76424;BME280;65257;52.104;4.268;2023-03-13T12:35:26;99344.47;;;14.86;100.00
76424;BME280;65257;52.104;4.268;2023-03-13T12:38:15;99333.19;;;15.01;100.00
76424;BME280;65257;52.104;4.268;2023-03-13T12:43:19;99333.78;;;15.33;100.00
76424;BME280;65257;52.104;4.268;2023-03-13T12:51:24;99336.56;;;15.09;100.00
76424;BME280;65257;52.104;4.268;2023-03-13T12:59:37;99298.19;;;15.73;100.00
76424;BME280;65257;52.104;4.268;2023-03-13T13:02:30;99308.00;;;15.33;100.00
76424;BME280;65257;52.104;4.268;2023-03-13T13:04:58;99304.59;;;15.28;100.00
76424;BME280;65257;52.104;4.268;2023-03-13T13:07:28;99309.31;;;14.75;100.00
76424;BME280;65257;52.104;4.268;2023-03-13T13:10:21;99308.97;;;15.22;100.00
76424;BME280;65257;52.104;4.268;2023-03-13T13:18:35;99287.81;;;14.82;100.00
76424;BME280;65257;52.104;4.268;2023-03-13T13:21:19;99277.56;;;14.79;100.00
76424;BME280;65257;52.104;4.268;2023-03-13T13:23:49;99270.72;;;14.76;100.00
76424;BME280;65257;52.104;4.268;2023-03-13T13:26:36;99253.38;;;14.95;100.00
76424;BME280;65257;52.104;4.268;2023-03-13T13:36:58;99250.88;;;14.86;100.00
76424;BME280;65257;52.104;4.268;2023-03-13T13:39:40;99280.09;;;14.83;100.00
76424;BME280;65257;52.104;4.268;2023-03-13T13:45:17;99287.06;;;14.71;100.00
76424;BME280;65257;52.104;4.268;2023-03-13T13:48:12;99255.38;;;14.58;100.00
76424;BME280;65257;52.104;4.268;2023-03-13T13:50:37;99234.81;;;14.58;100.00
76424;BME280;65257;52.104;4.268;2023-03-13T13:53:31;99222.81;;;14.53;100.00
76424;BME280;65257;52.104;4.268;2023-03-13T13:55:57;99240.16;;;14.17;100.00
76424;BME280;65257;52.104;4.268;2023-03-13T13:58:34;99231.59;;;14.12;100.00
76424;BME280;65257;52.104;4.268;2023-03-13T14:01:20;99272.91;;;13.77;100.00
76424;BME280;65257;52.104;4.268;2023-03-13T14:03:46;99243.81;;;13.68;100.00
76424;BME280;65257;52.104;4.268;2023-03-13T14:06:22;99252.34;;;13.73;100.00
76424;BME280;65257;52.104;4.268;2023-03-13T14:08:54;99239.50;;;13.74;100.00
76424;BME280;65257;52.104;4.268;2023-03-13T14:11:24;99218.97;;;13.67;100.00
76424;BME280;65257;52.104;4.268;2023-03-13T14:14:20;99237.78;;;13.72;100.00
76424;BME280;65257;52.104;4.268;2023-03-13T14:17:00;99221.53;;;13.65;100.00
76424;BME280;65257;52.104;4.268;2023-03-13T14:19:39;99236.13;;;13.60;100.00
76424;BME280;65257;52.104;4.268;2023-03-13T14:22:10;99245.59;;;13.45;100.00
76424;BME280;65257;52.104;4.268;2023-03-13T14:24:38;99228.44;;;13.41;100.00
76424;BME280;65257;52.104;4.268;2023-03-13T14:27:16;99242.19;;;13.37;100.00